createdAt,value
2023-03-26T00:00:14.406Z,22.89
2023-03-26T00:02:44.419Z,22.90
2023-03-26T00:05:15.725Z,22.87
2023-03-26T00:07:45.758Z,22.89
2023-03-26T00:10:16.716Z,22.87
2023-03-26T00:12:46.996Z,22.87
2023-03-26T00:15:16.948Z,22.84
2023-03-26T00:17:49.428Z,22.82
2023-03-26T00:20:19.508Z,22.86
2023-03-26T00:22:49.420Z,22.80
2023-03-26T00:25:19.580Z,22.80
2023-03-26T00:27:50.776Z,22.80
2023-03-26T00:30:21.264Z,22.79
2023-03-26T00:32:53.530Z,22.80
2023-03-26T00:35:25.146Z,22.80
2023-03-26T00:37:55.227Z,22.82
2023-03-26T00:40:24.825Z,22.84
2023-03-26T00:42:54.620Z,22.86
2023-03-26T00:45:24.606Z,22.87
2023-03-26T00:47:54.513Z,22.93
2023-03-26T00:50:24.438Z,22.90
2023-03-26T00:52:56.955Z,22.93
2023-03-26T00:55:26.774Z,22.89
2023-03-26T00:57:58.499Z,22.90
2023-03-26T01:00:35.920Z,22.92
2023-03-26T01:03:07.305Z,22.92
2023-03-26T01:05:37.140Z,22.90
2023-03-26T01:08:31.877Z,22.93
2023-03-26T01:11:08.390Z,22.94
2023-03-26T01:13:40.578Z,22.92
2023-03-26T01:16:25.324Z,22.90
2023-03-26T01:18:59.838Z,22.79
2023-03-26T01:21:31.294Z,22.73
2023-03-26T01:24:03.053Z,22.62
2023-03-26T01:26:50.420Z,22.60
2023-03-26T01:30:02.951Z,22.70
2023-03-26T01:32:48.613Z,22.67
2023-03-26T01:35:21.213Z,22.72
2023-03-26T01:38:03.811Z,22.79
2023-03-26T01:40:43.790Z,22.76
2023-03-26T01:43:19.507Z,22.77
2023-03-26T01:45:51.502Z,22.69
2023-03-26T01:48:21.122Z,22.74
2023-03-26T01:50:54.708Z,22.67
2023-03-26T01:53:26.574Z,22.67
2023-03-26T01:56:08.614Z,22.69
2023-03-26T01:59:27.231Z,22.73
2023-03-26T02:02:23.154Z,22.69
2023-03-26T02:05:06.381Z,22.60
2023-03-26T02:07:43.546Z,22.55
2023-03-26T02:10:24.746Z,22.60
2023-03-26T02:12:58.354Z,22.56
2023-03-26T02:15:28.340Z,22.53
2023-03-26T02:18:00.876Z,22.53
2023-03-26T02:20:31.345Z,22.55
2023-03-26T02:23:01.743Z,22.49
2023-03-26T02:25:32.236Z,22.49
2023-03-26T02:28:02.371Z,22.49
2023-03-26T02:30:34.784Z,22.43
2023-03-26T02:33:04.978Z,22.46
2023-03-26T02:35:46.967Z,22.45
2023-03-26T02:38:18.219Z,22.49
2023-03-26T02:40:48.226Z,22.49
2023-03-26T02:43:18.411Z,22.48
2023-03-26T02:45:48.356Z,22.45
2023-03-26T02:48:37.474Z,22.46
2023-03-26T02:51:19.305Z,22.46
2023-03-26T02:54:17.380Z,22.48
2023-03-26T02:56:56.869Z,22.49
2023-03-26T02:59:53.963Z,22.46
2023-03-26T03:02:39.865Z,22.51
2023-03-26T03:05:28.379Z,22.43
2023-03-26T03:08:19.400Z,22.38
2023-03-26T03:11:14.987Z,22.39
2023-03-26T03:13:47.574Z,22.39
2023-03-26T03:16:24.311Z,22.36
2023-03-26T03:18:58.369Z,22.42
2023-03-26T03:21:38.628Z,22.42
2023-03-26T03:24:10.545Z,22.48
2023-03-26T03:26:46.935Z,22.45
2023-03-26T03:29:49.095Z,22.42
2023-03-26T03:32:39.399Z,22.45
2023-03-26T03:37:58.681Z,22.53
2023-03-26T03:40:30.251Z,22.52
2023-03-26T03:43:00.251Z,22.49
2023-03-26T03:45:39.539Z,22.52
2023-03-26T03:48:13.140Z,22.48
2023-03-26T03:50:46.675Z,22.46
2023-03-26T03:53:28.443Z,22.48
2023-03-26T03:56:03.182Z,22.49
2023-03-26T03:58:55.849Z,22.36
2023-03-26T04:01:32.858Z,22.39
2023-03-26T04:04:09.048Z,22.38
2023-03-26T04:07:01.963Z,22.28
2023-03-26T04:09:39.431Z,22.31
2023-03-26T04:12:17.507Z,22.26
2023-03-26T04:14:57.585Z,22.26
2023-03-26T04:17:27.987Z,22.28
2023-03-26T04:19:59.342Z,22.29
2023-03-26T04:22:35.780Z,22.28
2023-03-26T04:25:12.062Z,22.28
2023-03-26T04:27:53.209Z,22.25
2023-03-26T04:30:54.905Z,22.21
2023-03-26T04:33:36.751Z,22.28
2023-03-26T04:36:07.891Z,22.32
2023-03-26T04:38:50.468Z,22.35
2023-03-26T04:41:27.497Z,22.32
2023-03-26T04:44:04.041Z,22.35
2023-03-26T04:46:39.558Z,22.33
2023-03-26T04:49:15.885Z,22.38
2023-03-26T04:51:47.870Z,22.46
2023-03-26T04:54:55.440Z,22.51
2023-03-26T04:57:36.418Z,22.46
2023-03-26T05:00:21.589Z,22.39
2023-03-26T05:03:00.655Z,22.43
2023-03-26T05:05:31.537Z,22.43
2023-03-26T05:08:02.698Z,22.45
2023-03-26T05:10:32.989Z,22.43
2023-03-26T05:13:07.910Z,22.45
2023-03-26T05:15:40.942Z,22.43
2023-03-26T05:18:42.853Z,22.46
2023-03-26T05:21:13.182Z,22.48
2023-03-26T05:23:43.514Z,22.46
2023-03-26T05:26:23.857Z,22.48
2023-03-26T05:28:53.785Z,22.45
2023-03-26T05:31:39.048Z,22.48
2023-03-26T05:34:09.073Z,22.46
2023-03-26T05:36:39.063Z,22.46
2023-03-26T05:39:28.059Z,22.43
2023-03-26T05:42:17.772Z,22.46
2023-03-26T05:45:02.296Z,22.48
2023-03-26T05:47:34.844Z,22.51
2023-03-26T05:50:05.676Z,22.52
2023-03-26T05:52:37.561Z,22.46
2023-03-26T05:55:25.757Z,22.49
2023-03-26T05:58:15.035Z,22.49
2023-03-26T06:01:18.253Z,22.49
2023-03-26T06:04:13.189Z,22.53
2023-03-26T06:06:49.312Z,22.52
2023-03-26T06:09:19.768Z,22.52
2023-03-26T06:11:49.559Z,22.52
2023-03-26T06:14:19.303Z,22.55
2023-03-26T06:17:08.136Z,22.52
2023-03-26T06:19:57.857Z,22.49
2023-03-26T06:22:37.057Z,22.48
2023-03-26T06:25:27.186Z,22.45
2023-03-26T06:28:15.337Z,22.51
2023-03-26T06:31:05.553Z,22.52
2023-03-26T06:33:38.843Z,22.51
2023-03-26T06:36:09.471Z,22.56
2023-03-26T06:38:40.851Z,22.55
2023-03-26T06:41:11.790Z,22.56
2023-03-26T06:44:06.432Z,22.55
2023-03-26T06:46:54.672Z,22.56
2023-03-26T06:49:44.263Z,22.56
2023-03-26T06:52:41.414Z,22.57
2023-03-26T06:55:37.322Z,22.56
2023-03-26T06:58:15.266Z,22.55
2023-03-26T07:00:48.215Z,22.60
2023-03-26T07:03:37.532Z,22.59
2023-03-26T07:06:25.855Z,22.63
2023-03-26T07:09:31.439Z,22.60
2023-03-26T07:29:40.844Z,22.60
2023-03-26T07:32:50.130Z,22.59
2023-03-26T07:36:00.293Z,22.59
2023-03-26T07:45:41.437Z,22.63
2023-03-26T07:48:46.175Z,22.60
2023-03-26T08:11:56.739Z,22.60
2023-03-26T08:14:49.860Z,22.60
2023-03-26T08:17:43.861Z,22.57
2023-03-26T08:20:33.294Z,22.57
2023-03-26T08:23:18.560Z,22.56
2023-03-26T08:25:54.361Z,22.53
2023-03-26T08:28:56.646Z,22.56
2023-03-26T08:31:34.612Z,22.51
2023-03-26T08:34:04.689Z,22.51
2023-03-26T08:36:34.438Z,22.51
2023-03-26T08:39:04.133Z,22.52
2023-03-26T08:41:55.340Z,22.48
2023-03-26T08:44:33.911Z,22.43
2023-03-26T08:47:42.190Z,22.43
2023-03-26T08:50:40.269Z,22.46
2023-03-26T08:53:43.418Z,22.46
2023-03-26T08:56:21.675Z,22.38
2023-03-26T08:59:38.406Z,22.42
2023-03-26T09:02:32.812Z,22.32
2023-03-26T09:05:18.208Z,22.28
2023-03-26T09:07:56.649Z,22.38
2023-03-26T09:10:35.031Z,22.43
2023-03-26T09:13:19.248Z,22.38
2023-03-26T09:16:23.661Z,22.36
2023-03-26T09:19:25.525Z,22.36
2023-03-26T09:22:17.975Z,22.38
2023-03-26T09:25:19.991Z,22.38
2023-03-26T09:28:08.057Z,22.31
2023-03-26T09:30:58.826Z,22.26
2023-03-26T09:34:03.165Z,22.24
2023-03-26T09:37:09.516Z,22.21
2023-03-26T09:40:11.263Z,22.21
2023-03-26T09:42:45.870Z,22.15
2023-03-26T09:45:52.868Z,22.11
2023-03-26T09:48:41.041Z,22.16
2023-03-26T09:51:22.620Z,22.18
2023-03-26T09:54:27.419Z,22.16
2023-03-26T09:57:29.072Z,22.04
2023-03-26T10:00:11.432Z,22.08
2023-03-26T10:03:15.088Z,22.14
2023-03-26T10:06:03.613Z,22.06
2023-03-26T10:09:00.147Z,22.14
2023-03-26T10:11:48.095Z,22.28
2023-03-26T10:14:19.352Z,22.25
2023-03-26T10:16:57.863Z,22.24
2023-03-26T10:19:38.167Z,22.14
2023-03-26T10:22:34.648Z,22.24
2023-03-26T10:25:23.940Z,22.35
2023-03-26T10:28:04.972Z,22.48
2023-03-26T10:31:01.035Z,22.56
2023-03-26T10:33:45.153Z,22.45
2023-03-26T10:36:28.068Z,22.48
2023-03-26T10:39:35.986Z,22.63
2023-03-26T10:42:21.880Z,22.82
2023-03-26T10:45:00.676Z,23.11
2023-03-26T10:48:07.287Z,23.28
2023-03-26T10:50:52.094Z,23.45
2023-03-26T10:53:40.925Z,23.58
2023-03-26T10:56:39.514Z,23.62
2023-03-26T10:59:13.719Z,23.47
2023-03-26T11:01:43.546Z,23.32
2023-03-26T11:04:37.692Z,23.38
2023-03-26T11:07:08.696Z,24.36
2023-03-26T11:10:18.323Z,24.77
2023-03-26T11:13:05.042Z,25.32
2023-03-26T11:15:52.232Z,25.94
2023-03-26T11:18:34.832Z,25.80
2023-03-26T11:21:26.456Z,25.69
2023-03-26T11:24:25.976Z,25.36
2023-03-26T11:27:15.521Z,25.12
2023-03-26T11:30:17.399Z,24.64
2023-03-26T11:32:51.690Z,23.98
2023-03-26T11:35:39.429Z,24.13
2023-03-26T11:41:32.514Z,24.21
2023-03-26T11:44:28.757Z,24.75
2023-03-26T11:47:05.163Z,26.01
2023-03-26T11:49:35.100Z,26.13
2023-03-26T11:52:05.224Z,26.34
2023-03-26T11:54:35.028Z,26.99
2023-03-26T11:57:20.882Z,27.77
2023-03-26T12:00:00.624Z,27.95
2023-03-26T12:02:40.676Z,28.47
2023-03-26T12:05:27.537Z,28.52
2023-03-26T12:07:59.400Z,27.99
2023-03-26T12:10:36.006Z,26.79
2023-03-26T12:13:52.876Z,27.41
2023-03-26T12:16:23.890Z,28.31
2023-03-26T12:19:09.292Z,27.84
2023-03-26T12:21:50.788Z,26.86
2023-03-26T12:24:38.537Z,28.45
2023-03-26T12:27:23.032Z,29.65
2023-03-26T12:29:56.169Z,30.52
2023-03-26T12:32:35.619Z,30.25
2023-03-26T12:35:30.511Z,28.12
2023-03-26T12:38:40.442Z,26.65
2023-03-26T12:44:42.649Z,26.41
2023-03-26T12:44:55.788Z,27.43
2023-03-26T12:47:55.363Z,29.79
2023-03-26T12:50:17.570Z,29.52
2023-03-26T12:53:23.944Z,28.71
2023-03-26T12:56:03.328Z,27.59
2023-03-26T13:03:05.158Z,26.11
2023-03-26T13:18:45.626Z,29.48
2023-03-26T13:24:54.795Z,27.81
2023-03-26T13:27:48.050Z,27.89
2023-03-26T13:30:35.945Z,28.13
2023-03-26T13:33:39.015Z,29.49
2023-03-26T13:36:47.759Z,29.21
2023-03-26T13:39:25.750Z,29.26
2023-03-26T13:42:29.945Z,30.07
2023-03-26T13:45:05.041Z,30.13
2023-03-26T13:47:42.597Z,29.66
2023-03-26T13:50:35.581Z,30.52
2023-03-26T13:53:15.433Z,31.82
2023-03-26T13:55:50.099Z,32.40
2023-03-26T13:58:43.323Z,30.93
2023-03-26T14:01:24.714Z,29.03
2023-03-26T14:03:56.554Z,28.83
2023-03-26T14:06:47.936Z,30.89
2023-03-26T14:09:26.217Z,31.30
2023-03-26T14:11:59.224Z,31.23
2023-03-26T14:14:46.425Z,31.64
2023-03-26T14:17:26.940Z,33.10
2023-03-26T14:20:25.414Z,33.02
2023-03-26T14:23:05.269Z,31.64
2023-03-26T14:25:47.478Z,31.22
2023-03-26T14:28:28.985Z,30.76
2023-03-26T14:30:59.035Z,29.73
2023-03-26T14:34:00.782Z,28.54
2023-03-26T14:37:08.397Z,28.39
2023-03-26T14:40:16.909Z,29.67
2023-03-26T14:42:56.698Z,31.36
2023-03-26T14:46:20.255Z,32.52
2023-03-26T14:49:09.687Z,31.40
2023-03-26T14:51:47.991Z,30.75
2023-03-26T14:54:28.372Z,29.43
2023-03-26T14:57:25.271Z,28.84
2023-03-26T15:00:09.108Z,30.44
2023-03-26T15:03:09.211Z,32.22
2023-03-26T15:06:00.796Z,32.62
2023-03-26T15:09:05.697Z,33.03
2023-03-26T15:12:12.891Z,33.74
2023-03-26T15:15:14.730Z,33.62
2023-03-26T15:18:00.271Z,34.44
2023-03-26T15:21:03.357Z,34.54
2023-03-26T15:23:42.182Z,32.42
2023-03-26T15:26:39.293Z,31.69
2023-03-26T15:29:51.726Z,30.00
2023-03-26T15:32:50.615Z,30.88
2023-03-26T15:35:51.884Z,32.24
2023-03-26T15:38:40.045Z,33.30
2023-03-26T15:41:33.685Z,35.25
2023-03-26T15:44:27.620Z,35.76
2023-03-26T15:47:21.653Z,34.68
2023-03-26T15:50:13.562Z,34.50
2023-03-26T15:53:22.436Z,31.30
2023-03-26T15:56:33.999Z,32.42
2023-03-26T15:59:19.228Z,32.65
2023-03-26T16:02:03.726Z,32.96
2023-03-26T16:04:51.982Z,34.94
2023-03-26T16:07:54.126Z,35.69
2023-03-26T16:10:36.513Z,34.47
2023-03-26T16:13:21.536Z,31.90
2023-03-26T16:15:57.092Z,30.47
2023-03-26T16:18:34.378Z,29.99
2023-03-26T16:21:33.031Z,30.40
2023-03-26T16:24:05.535Z,31.46
2023-03-26T16:26:54.020Z,31.60
2023-03-26T16:29:29.932Z,31.59
2023-03-26T16:32:14.920Z,31.43
2023-03-26T16:35:00.260Z,32.39
2023-03-26T16:37:45.053Z,32.24
2023-03-26T16:40:21.961Z,32.82
2023-03-26T16:43:10.374Z,33.92
2023-03-26T16:45:52.083Z,34.74
2023-03-26T16:48:25.076Z,35.12
2023-03-26T16:51:24.234Z,34.35
2023-03-26T16:53:59.605Z,34.76
2023-03-26T16:56:37.169Z,33.96
2023-03-26T16:59:29.658Z,33.27
2023-03-26T17:02:25.999Z,33.38
2023-03-26T17:05:30.929Z,31.98
2023-03-26T17:08:36.570Z,31.71
2023-03-26T17:11:30.564Z,34.02
2023-03-26T17:14:27.769Z,34.68
2023-03-26T17:17:22.320Z,33.91
2023-03-26T17:20:02.564Z,35.01
2023-03-26T17:22:38.674Z,34.25
2023-03-26T17:26:08.139Z,32.76
2023-03-26T17:28:53.228Z,31.90
2023-03-26T17:31:34.760Z,32.05
2023-03-26T17:35:00.400Z,32.00
2023-03-26T17:37:38.724Z,32.89
2023-03-26T17:40:33.408Z,31.25
2023-03-26T17:43:09.797Z,32.29
2023-03-26T17:45:44.790Z,31.59
2023-03-26T17:48:38.128Z,29.34
2023-03-26T17:51:50.171Z,28.75
2023-03-26T17:54:42.598Z,29.32
2023-03-26T17:57:22.976Z,29.32
2023-03-26T17:59:57.805Z,28.71
2023-03-26T18:02:41.602Z,28.22
2023-03-26T18:05:14.825Z,29.84
2023-03-26T18:08:05.713Z,28.22
2023-03-26T18:10:36.296Z,27.65
2023-03-26T18:13:40.814Z,29.28
2023-03-26T18:16:47.777Z,31.61
2023-03-26T18:19:20.619Z,31.90
2023-03-26T18:21:55.997Z,30.65
2023-03-26T18:24:37.945Z,28.59
2023-03-26T18:27:17.064Z,29.96
2023-03-26T18:30:02.132Z,30.28
2023-03-26T18:32:34.626Z,30.51
2023-03-26T18:35:25.567Z,30.88
2023-03-26T18:38:01.149Z,30.76
2023-03-26T18:40:42.512Z,30.95
2023-03-26T18:43:34.450Z,28.77
2023-03-26T18:46:05.589Z,30.24
2023-03-26T18:48:35.557Z,29.11
2023-03-26T18:51:07.897Z,29.05
2023-03-26T18:53:44.650Z,29.86
2023-03-26T18:56:32.765Z,30.55
2023-03-26T18:59:05.045Z,30.45
2023-03-26T19:01:39.230Z,29.92
2023-03-26T19:04:14.230Z,30.47
2023-03-26T19:06:45.260Z,30.09
2023-03-26T19:09:24.267Z,29.94
2023-03-26T19:12:00.758Z,29.69
2023-03-26T19:14:36.403Z,29.84
2023-03-26T19:17:09.530Z,30.14
2023-03-26T19:19:40.104Z,29.92
2023-03-26T19:22:13.020Z,30.37
2023-03-26T19:24:43.675Z,30.03
2023-03-26T19:27:14.288Z,29.76
2023-03-26T19:29:46.047Z,29.21
2023-03-26T19:32:33.340Z,28.52
2023-03-26T19:35:05.607Z,28.37
2023-03-26T19:37:36.469Z,28.45
2023-03-26T19:40:23.540Z,28.61
2023-03-26T19:42:53.433Z,28.33
2023-03-26T19:45:26.576Z,28.22
2023-03-26T19:48:11.810Z,28.06
2023-03-26T19:50:55.912Z,28.25
2023-03-26T19:53:35.901Z,27.41
2023-03-26T19:56:14.521Z,27.59
2023-03-26T19:58:44.650Z,27.62
2023-03-26T20:01:26.153Z,27.80
2023-03-26T20:04:03.263Z,27.47
2023-03-26T20:06:43.302Z,27.44
2023-03-26T20:09:15.030Z,27.27
2023-03-26T20:11:45.229Z,27.13
2023-03-26T20:14:22.724Z,26.87
2023-03-26T20:16:53.322Z,26.82
2023-03-26T20:19:23.614Z,26.82
2023-03-26T20:21:54.120Z,26.69
2023-03-26T20:24:25.900Z,26.60
2023-03-26T20:26:55.892Z,26.42
2023-03-26T20:29:25.507Z,26.17
2023-03-26T20:31:55.378Z,26.01
2023-03-26T20:34:26.095Z,26.08
2023-03-26T20:37:01.138Z,26.08
2023-03-26T20:39:32.488Z,25.98
2023-03-26T20:42:02.296Z,25.96
2023-03-26T20:44:32.608Z,25.87
2023-03-26T20:47:03.363Z,25.71
2023-03-26T20:49:33.838Z,25.76
2023-03-26T20:52:03.826Z,25.74
2023-03-26T20:54:33.752Z,25.53
2023-03-26T20:57:04.716Z,25.43
2023-03-26T20:59:35.663Z,25.33
2023-03-26T21:02:05.937Z,25.25
2023-03-26T21:04:36.162Z,25.22
2023-03-26T21:07:17.862Z,25.12
2023-03-26T21:09:49.868Z,24.94
2023-03-26T21:12:29.309Z,24.85
2023-03-26T21:14:59.604Z,24.77
2023-03-26T21:17:30.074Z,24.74
2023-03-26T21:20:09.129Z,24.72
2023-03-26T21:22:45.995Z,24.68
2023-03-26T21:25:33.258Z,24.50
2023-03-26T21:28:11.436Z,24.34
2023-03-26T21:30:41.680Z,24.10
2023-03-26T21:33:11.780Z,23.88
2023-03-26T21:35:44.139Z,23.65
2023-03-26T21:38:14.755Z,23.52
2023-03-26T21:40:58.200Z,23.38
2023-03-26T21:43:29.003Z,23.20
2023-03-26T21:45:59.712Z,23.07
2023-03-26T21:48:30.763Z,22.96
2023-03-26T21:51:04.565Z,22.84
2023-03-26T21:53:36.706Z,22.76
2023-03-26T21:56:24.477Z,22.53
2023-03-26T21:59:17.360Z,22.38
2023-03-26T22:01:58.487Z,22.21
2023-03-26T22:04:43.826Z,22.25
2023-03-26T22:07:27.452Z,22.22
2023-03-26T22:09:57.685Z,22.19
2023-03-26T22:12:27.693Z,22.05
2023-03-26T22:14:58.185Z,22.02
2023-03-26T22:17:28.763Z,21.95
2023-03-26T22:19:58.684Z,21.94
2023-03-26T22:22:29.848Z,22.00
2023-03-26T22:25:00.612Z,22.00
2023-03-26T22:27:30.447Z,22.01
2023-03-26T22:30:00.482Z,22.01
2023-03-26T22:32:32.784Z,21.95
2023-03-26T22:35:03.014Z,21.95
2023-03-26T22:37:33.158Z,21.91
2023-03-26T22:40:03.158Z,21.84
2023-03-26T22:42:32.862Z,21.74
2023-03-26T22:45:02.801Z,21.71
2023-03-26T22:47:35.554Z,21.70
2023-03-26T22:50:08.630Z,21.43
2023-03-26T22:52:38.931Z,21.36
2023-03-26T22:55:10.273Z,21.40
2023-03-26T22:57:41.054Z,21.33
2023-03-26T23:00:20.729Z,21.32
2023-03-26T23:02:50.961Z,21.26
2023-03-26T23:05:20.990Z,21.27
2023-03-26T23:07:50.634Z,21.25
2023-03-26T23:10:20.574Z,21.25
2023-03-26T23:12:50.776Z,21.20
2023-03-26T23:16:08.220Z,21.20
2023-03-26T23:18:59.578Z,21.13
2023-03-26T23:21:29.377Z,21.07
2023-03-26T23:23:59.538Z,20.99
2023-03-26T23:26:34.994Z,20.95
2023-03-26T23:29:07.944Z,20.92
2023-03-26T23:31:38.318Z,20.91
2023-03-26T23:34:08.149Z,20.91
2023-03-26T23:36:37.822Z,20.85
2023-03-26T23:39:08.172Z,20.76
2023-03-26T23:41:38.144Z,20.76
2023-03-26T23:44:08.160Z,20.64
2023-03-26T23:46:38.077Z,20.59
2023-03-26T23:49:07.953Z,20.58
2023-03-26T23:51:39.454Z,20.48
2023-03-26T23:54:09.824Z,20.45
2023-03-26T23:56:39.869Z,20.47
2023-03-26T23:59:09.575Z,20.40
